Aérodrome :
LOGIN :

S'inscrire | Disclaimer

   EN    FR    IT 

 










Légende :    VFR   VFR Marginal   IFR   IFR Intensif   IFR Très Intensif
Visi : 
Plafond : 
>= 8 km
>= 3000ft
5 à 8 km
1000 à 3000 ft
1500m à 5 km
500 à 1000 ft
800 à 1500m
200 à 500 ft
< 800m
< 200 ft
Symboles :   Orages  Brouillard  Fortes neiges  Fortes précipitations  Vent > 20 kt
SIGMETs :   Divers  Orages  Givrage  Turbulence  Onde Orograph.  Cendres Volcan.






- Altitude de l'aérodrome : 659 ft
- Code IATA : LGG


EBLG - Liège

DERNIER METAR :
  • 260550Z 15005KT 130V250 9999 BKN035 07/04 Q1020 NOSIG

METARs EXPIRÉS :
  • 260520Z 15008KT 9999 BKN034 07/05 Q1020 NOSIG
  • 260450Z 15007KT 9999 BKN034 07/04 Q1020 NOSIG
  • 260420Z 16009KT 9999 BKN034 07/04 Q1020 NOSIG
  • 260350Z 16009KT 140V200 9999 BKN034 07/05 Q1020 NOSIG

TAF TAF EBLG
Valide du 26 à 06h jusqu'au 27 à 12h UTC


260510Z 2606/2712 18004KT 9999 SCT030
BECMG 2619/2621 2500 BR
PROB40
TEMPO 2621/2712 0400 FG BKN001



MET'MAP, la Météo Aéronautique d'un coup d'oeil ! - Copyright ORBIFLY Décembre 2007 - Disclaimer

ORBIFLY MET'MAP TEAM :

Programmation & Développement : Alexandra Zaïnal
Sur une idée originale de : Baudouin d'Aumeries
Assistance à la programmation : Marc-Olivier Méhu
Soutien technique & logistique : Manuel Goepfert

Contact : metmap@orbifly.com




SOURCES & CREDITS :

   NOAA